Philip S. W. Goldson International Airport
MZBZ : now visible

Airfield :











YOU CAN JOIN US ON...

 
LOGIN :

Register | Disclaimer

   EN    FR    IT 

 









Legend :    VFR   Marginal VFR   IFR   Intensive IFR   Very Intensive IFR
Visi :
Ceiling :
>= 8 km
>= 3000ft
5 to 8 km
1000 to 3000 ft
1500m to 5 km
500 to 1000 ft
800 to 1500m
200 to 500 ft
< 800m
< 200 ft
Symbols :   Thunderstorms  Fog  Heavy snow  Heavy precipitations  Wind > 20 kt






- Airport Elevation : 15 ft
- IATA code : BZE


MZBZ - Philip S. W. Goldson International

CURRENT METAR :
  • 260000Z 09008KT 9999 FEW022 30/28 A2969 Q1005 NOSIG

EXPIRED METARs :
  • 252300Z 10010KT 9999 SCT024 32/28 A2967 Q1004 NOSIG RMK HZY

TAF TAF MZBZ
Valid from the 26 at 00:00 until the 27 at 00:00 UTC


252100Z 2600/2624 09008KT 9999 SCT023
MHTG FIR / North America



MET'MAP, your aeronautical weather chart ! - Copyright ORBIFLY December 2007 - Disclaimer

ORBIFLY MET'MAP TEAM :

Programming & Development : Alexandra Zaïnal
Concept & original design : Baudouin d'Aumeries
Assistance for programming : Marc-Olivier Méhu
Technical & hardware support : Manuel Goepfert

Contact : metmap@orbifly.com




SOURCES & CREDITS :

   NOAA       Earth
Advisory